createdAt,value
2018-03-02T00:01:28.746Z,27.00
2018-03-02T00:03:32.106Z,27.10
2018-03-02T00:05:36.239Z,27.10
2018-03-02T00:07:39.599Z,27.10
2018-03-02T00:09:43.747Z,27.00
2018-03-02T00:11:47.112Z,27.00
2018-03-02T00:13:50.474Z,27.00
2018-03-02T00:15:54.612Z,26.90
2018-03-02T00:17:58.008Z,27.10
2018-03-02T00:20:01.377Z,27.10
2018-03-02T00:22:05.514Z,27.60
2018-03-02T00:24:08.928Z,27.10
2018-03-02T00:26:12.294Z,27.10
2018-03-02T00:28:15.655Z,27.10
2018-03-02T00:30:19.018Z,27.10
2018-03-02T00:32:22.373Z,27.50
2018-03-02T00:34:25.750Z,27.10
2018-03-02T00:36:29.122Z,27.10
2018-03-02T00:38:32.482Z,27.10
2018-03-02T00:40:35.856Z,27.10
2018-03-02T00:42:39.225Z,27.10
2018-03-02T00:44:42.642Z,27.10
2018-03-02T00:46:46.000Z,27.60
2018-03-02T00:48:50.135Z,27.00
2018-03-02T00:50:53.508Z,27.00
2018-03-02T00:52:56.885Z,27.00
2018-03-02T00:55:01.037Z,27.00
2018-03-02T00:57:04.410Z,27.00
2018-03-02T00:59:07.857Z,27.00
2018-03-02T01:01:11.216Z,27.00
2018-03-02T01:03:14.623Z,27.00
2018-03-02T01:05:18.025Z,27.00
2018-03-02T01:07:21.389Z,27.00
2018-03-02T01:09:24.765Z,26.90
2018-03-02T01:11:28.161Z,26.80
2018-03-02T01:13:31.526Z,26.80
2018-03-02T01:15:35.666Z,26.80
2018-03-02T01:17:39.035Z,26.80
2018-03-02T01:19:43.160Z,26.70
2018-03-02T01:21:46.570Z,26.70
2018-03-02T01:23:49.942Z,26.60
2018-03-02T01:25:53.313Z,26.50
2018-03-02T01:27:57.459Z,26.40
2018-03-02T01:30:00.645Z,26.40
2018-03-02T01:32:03.869Z,26.40
2018-03-02T01:34:07.048Z,26.30
2018-03-02T01:36:10.452Z,26.30
2018-03-02T01:38:13.640Z,26.20
2018-03-02T01:40:17.099Z,26.70
2018-03-02T01:42:20.464Z,26.20
2018-03-02T01:44:23.834Z,26.20
2018-03-02T01:46:27.328Z,26.20
2018-03-02T01:48:30.691Z,26.10
2018-03-02T01:50:34.154Z,26.10
2018-03-02T01:52:37.521Z,26.10
2018-03-02T01:54:41.644Z,26.60
2018-03-02T01:56:45.005Z,26.10
2018-03-02T01:58:48.375Z,26.10
2018-03-02T02:00:51.810Z,26.10
2018-03-02T02:02:55.190Z,26.60
2018-03-02T02:04:58.561Z,26.10
2018-03-02T02:07:01.930Z,26.10
2018-03-02T02:09:05.591Z,26.10
2018-03-02T02:11:09.719Z,26.10
2018-03-02T02:13:13.090Z,26.10
2018-03-02T02:15:16.470Z,26.10
2018-03-02T02:17:19.838Z,26.10
2018-03-02T02:19:23.204Z,26.10
2018-03-02T02:21:26.573Z,26.10
2018-03-02T02:23:29.934Z,26.20
2018-03-02T02:25:34.097Z,26.20
2018-03-02T02:27:37.457Z,26.20
2018-03-02T02:29:40.844Z,26.20
2018-03-02T02:31:44.974Z,26.20
2018-03-02T02:33:48.343Z,26.20
2018-03-02T02:35:52.482Z,26.20
2018-03-02T02:37:55.853Z,26.30
2018-03-02T02:39:59.216Z,26.30
2018-03-02T02:42:02.579Z,26.30
2018-03-02T02:44:05.937Z,26.20
2018-03-02T02:46:09.319Z,26.40
2018-03-02T02:48:12.685Z,26.40
2018-03-02T02:50:16.825Z,26.50
2018-03-02T02:52:20.196Z,26.50
2018-03-02T02:54:23.676Z,26.40
2018-03-02T02:56:27.045Z,26.50
2018-03-02T02:58:30.442Z,26.50
2018-03-02T03:00:33.865Z,26.50
2018-03-02T03:02:38.074Z,26.80
2018-03-02T03:04:42.214Z,26.50
2018-03-02T03:06:45.582Z,26.40
2018-03-02T03:08:49.722Z,26.50
2018-03-02T03:10:53.085Z,27.00
2018-03-02T03:12:57.221Z,26.50
2018-03-02T03:15:00.622Z,26.40
2018-03-02T03:17:03.983Z,26.40
2018-03-02T03:19:08.108Z,26.50
2018-03-02T03:21:11.490Z,26.40
2018-03-02T03:23:15.620Z,26.40
2018-03-02T03:25:18.991Z,26.40
2018-03-02T03:27:23.124Z,26.40
2018-03-02T03:29:26.541Z,26.40
2018-03-02T03:31:30.122Z,26.40
2018-03-02T03:33:33.534Z,26.40
2018-03-02T03:35:36.907Z,26.30
2018-03-02T03:37:40.278Z,26.40
2018-03-02T03:39:44.420Z,26.40
2018-03-02T03:41:47.775Z,26.40
2018-03-02T03:43:51.175Z,26.50
2018-03-02T03:45:54.665Z,26.50
2018-03-02T03:47:58.021Z,26.50
2018-03-02T03:50:01.385Z,26.50
2018-03-02T03:52:04.594Z,26.50
2018-03-02T03:54:07.972Z,26.40
2018-03-02T03:56:11.335Z,26.40
2018-03-02T03:58:14.721Z,26.40
2018-03-02T04:00:18.113Z,26.40
2018-03-02T04:02:21.506Z,26.40
2018-03-02T04:04:24.884Z,26.20
2018-03-02T04:06:28.306Z,26.20
2018-03-02T04:08:31.691Z,26.10
2018-03-02T04:10:34.868Z,26.00
2018-03-02T04:12:38.468Z,26.00
2018-03-02T04:14:41.838Z,25.90
2018-03-02T04:16:45.211Z,25.80
2018-03-02T04:18:48.718Z,25.70
2018-03-02T04:20:52.082Z,25.70
2018-03-02T04:22:55.496Z,25.60
2018-03-02T04:24:59.628Z,25.50
2018-03-02T04:27:02.992Z,25.40
2018-03-02T04:29:06.738Z,25.50
2018-03-02T04:31:10.100Z,25.30
2018-03-02T04:33:14.252Z,25.30
2018-03-02T04:35:17.640Z,25.30
2018-03-02T04:37:20.999Z,25.30
2018-03-02T04:39:25.197Z,25.20
2018-03-02T04:41:29.334Z,25.10
2018-03-02T04:43:32.701Z,25.10
2018-03-02T04:45:36.941Z,25.10
2018-03-02T04:47:40.313Z,25.10
2018-03-02T04:49:43.664Z,25.00
2018-03-02T04:51:47.116Z,25.00
2018-03-02T04:53:50.475Z,25.00
2018-03-02T04:55:54.200Z,25.00
2018-03-02T04:57:57.582Z,25.00
2018-03-02T05:00:01.320Z,25.00
2018-03-02T05:02:05.010Z,25.00
2018-03-02T05:04:08.381Z,25.00
2018-03-02T05:06:12.519Z,25.00
2018-03-02T05:08:15.907Z,25.00
2018-03-02T05:10:19.290Z,25.00
2018-03-02T05:12:22.682Z,25.00
2018-03-02T05:14:26.058Z,25.00
2018-03-02T05:16:30.199Z,25.00
2018-03-02T05:18:33.611Z,25.00
2018-03-02T05:20:36.969Z,25.10
2018-03-02T05:22:40.372Z,25.30
2018-03-02T05:24:43.744Z,25.40
2018-03-02T05:26:47.120Z,25.70
2018-03-02T05:28:51.286Z,26.00
2018-03-02T05:30:54.655Z,25.90
2018-03-02T05:32:58.098Z,26.10
2018-03-02T05:35:01.608Z,26.20
2018-03-02T05:37:05.759Z,26.20
2018-03-02T05:39:09.180Z,26.70
2018-03-02T05:41:12.583Z,26.20
2018-03-02T05:43:15.942Z,26.20
2018-03-02T05:45:19.340Z,26.10
2018-03-02T05:47:22.975Z,26.10
2018-03-02T05:49:27.539Z,26.00
2018-03-02T05:51:30.903Z,26.00
2018-03-02T05:53:35.204Z,25.90
2018-03-02T05:55:38.960Z,25.90
2018-03-02T05:57:42.316Z,25.80
2018-03-02T05:59:46.452Z,25.70
2018-03-02T06:01:49.852Z,25.70
2018-03-02T06:03:53.231Z,25.70
2018-03-02T06:05:56.656Z,25.70
2018-03-02T06:08:00.575Z,25.70
2018-03-02T06:10:04.019Z,25.70
2018-03-02T06:12:07.679Z,25.80
2018-03-02T06:14:12.152Z,25.80
2018-03-02T06:16:15.924Z,25.80
2018-03-02T06:18:19.662Z,25.90
2018-03-02T06:20:23.622Z,25.80
2018-03-02T06:22:28.406Z,25.90
2018-03-02T06:24:32.440Z,25.90
2018-03-02T06:26:36.882Z,26.40
2018-03-02T06:28:40.853Z,25.90
2018-03-02T06:30:44.503Z,26.00
2018-03-02T06:32:48.369Z,25.90
2018-03-02T06:34:52.798Z,26.00
2018-03-02T06:36:56.780Z,25.90
2018-03-02T06:39:00.800Z,26.00
2018-03-02T06:41:05.277Z,26.50
2018-03-02T06:43:09.629Z,26.00
2018-03-02T06:45:14.397Z,26.00
2018-03-02T06:47:18.507Z,26.00
2018-03-02T06:49:22.335Z,26.00
2018-03-02T06:51:26.238Z,26.50
2018-03-02T06:53:30.157Z,26.10
2018-03-02T06:55:34.097Z,26.00
2018-03-02T06:57:37.876Z,26.10
2018-03-02T06:59:41.833Z,26.10
2018-03-02T07:01:45.844Z,26.10
2018-03-02T07:03:49.613Z,26.10
2018-03-02T07:05:53.926Z,26.10
2018-03-02T07:07:58.795Z,26.10
2018-03-02T07:10:02.381Z,26.10
2018-03-02T07:12:06.182Z,26.20
2018-03-02T07:14:10.153Z,26.20
2018-03-02T07:16:14.143Z,26.20
2018-03-02T07:18:17.914Z,26.20
2018-03-02T07:20:21.817Z,26.20
2018-03-02T07:22:26.118Z,26.20
2018-03-02T07:24:30.024Z,26.30
2018-03-02T07:26:33.763Z,26.20
2018-03-02T07:28:37.535Z,26.20
2018-03-02T07:30:41.526Z,26.30
2018-03-02T07:32:45.326Z,26.20
2018-03-02T07:34:49.044Z,26.30
2018-03-02T07:36:53.152Z,26.20
2018-03-02T07:38:56.954Z,26.20
2018-03-02T07:41:00.542Z,26.20
2018-03-02T07:43:04.450Z,26.20
2018-03-02T07:45:07.936Z,26.20
2018-03-02T07:47:11.480Z,26.20
2018-03-02T07:49:15.144Z,26.10
2018-03-02T07:51:19.086Z,26.10
2018-03-02T07:53:24.013Z,26.10
2018-03-02T07:55:29.331Z,26.10
2018-03-02T07:57:33.015Z,26.10
2018-03-02T07:59:36.989Z,26.10
2018-03-02T08:01:40.611Z,26.10
2018-03-02T08:03:44.327Z,26.10
2018-03-02T08:05:47.936Z,26.10
2018-03-02T08:07:52.612Z,25.90
2018-03-02T08:09:56.227Z,26.10
2018-03-02T08:12:00.024Z,26.10
2018-03-02T08:14:03.882Z,26.10
2018-03-02T08:16:07.796Z,26.20
2018-03-02T08:18:11.735Z,26.20
2018-03-02T08:20:15.413Z,26.40
2018-03-02T08:22:19.007Z,26.30
2018-03-02T08:24:22.742Z,26.30
2018-03-02T08:26:34.548Z,26.40
2018-03-02T08:28:38.223Z,26.40
2018-03-02T08:30:41.841Z,26.30
2018-03-02T08:32:45.672Z,26.40
2018-03-02T08:34:50.557Z,26.40
2018-03-02T08:36:54.352Z,26.40
2018-03-02T08:38:58.560Z,26.30
2018-03-02T08:41:02.375Z,26.40
2018-03-02T08:43:06.287Z,26.30
2018-03-02T08:45:10.351Z,26.30
2018-03-02T08:47:14.348Z,26.30
2018-03-02T08:49:18.826Z,26.30
2018-03-02T08:51:22.823Z,26.30
2018-03-02T08:53:26.815Z,26.30
2018-03-02T08:55:30.614Z,26.30
2018-03-02T08:57:34.531Z,26.30
2018-03-02T08:59:38.232Z,26.30
2018-03-02T09:01:42.332Z,26.30
2018-03-02T09:03:45.984Z,26.30
2018-03-02T09:05:50.449Z,26.30
2018-03-02T09:07:54.345Z,26.20
2018-03-02T09:09:58.270Z,26.20
2018-03-02T09:12:02.074Z,26.10
2018-03-02T09:14:05.864Z,26.00
2018-03-02T09:16:09.664Z,26.00
2018-03-02T09:18:13.672Z,25.90
2018-03-02T09:20:17.670Z,25.80
2018-03-02T09:22:21.367Z,25.80
2018-03-02T09:24:26.572Z,25.70
2018-03-02T09:26:30.716Z,25.60
2018-03-02T09:28:34.742Z,25.50
2018-03-02T09:30:38.638Z,25.40
2018-03-02T09:32:42.315Z,25.40
2018-03-02T09:34:46.277Z,25.20
2018-03-02T09:36:50.064Z,25.10
2018-03-02T09:38:54.272Z,25.10
2018-03-02T09:40:57.884Z,25.00
2018-03-02T09:43:01.558Z,25.00
2018-03-02T09:45:05.252Z,24.90
2018-03-02T09:47:09.044Z,24.90
2018-03-02T09:49:12.740Z,24.80
2018-03-02T09:51:16.346Z,24.80
2018-03-02T09:53:19.944Z,24.80
2018-03-02T09:55:23.658Z,24.80
2018-03-02T09:57:27.454Z,24.80
2018-03-02T09:59:31.100Z,24.80
2018-03-02T10:01:34.846Z,24.80
2018-03-02T10:03:38.877Z,24.80
2018-03-02T10:05:42.714Z,24.80
2018-03-02T10:07:47.162Z,24.80
2018-03-02T10:09:50.768Z,24.80
2018-03-02T10:11:54.460Z,24.80
2018-03-02T10:13:58.214Z,24.90
2018-03-02T10:16:02.066Z,24.90
2018-03-02T10:18:05.805Z,25.00
2018-03-02T10:20:09.392Z,24.90
2018-03-02T10:22:13.073Z,25.00
2018-03-02T10:24:17.598Z,25.00
2018-03-02T10:26:21.294Z,25.10
2018-03-02T10:28:24.952Z,25.10
2018-03-02T10:30:28.803Z,25.10
2018-03-02T10:32:32.580Z,25.20
2018-03-02T10:34:36.200Z,25.10
2018-03-02T10:36:39.999Z,25.20
2018-03-02T10:38:43.779Z,25.20
2018-03-02T10:40:47.356Z,25.20
2018-03-02T10:42:51.092Z,25.30
2018-03-02T10:44:54.754Z,25.40
2018-03-02T10:46:58.381Z,25.40
2018-03-02T10:49:01.964Z,25.50
2018-03-02T10:51:05.575Z,25.50
2018-03-02T10:53:09.282Z,25.50
2018-03-02T10:55:13.096Z,25.50
2018-03-02T10:57:16.625Z,25.60
2018-03-02T10:59:20.269Z,25.60
2018-03-02T11:01:26.738Z,25.60
2018-03-02T11:03:30.195Z,25.60
2018-03-02T11:05:39.415Z,25.70
2018-03-02T11:07:43.068Z,25.70
2018-03-02T11:09:46.645Z,25.60
2018-03-02T11:11:50.356Z,25.60
2018-03-02T11:13:53.988Z,25.70
2018-03-02T11:15:57.666Z,25.60
2018-03-02T11:18:01.439Z,25.70
2018-03-02T11:20:05.147Z,25.70
2018-03-02T11:22:08.811Z,25.70
2018-03-02T11:24:12.460Z,25.70
2018-03-02T11:26:16.153Z,25.70
2018-03-02T11:28:19.830Z,25.70
2018-03-02T11:30:23.572Z,25.70
2018-03-02T11:32:27.339Z,25.70
2018-03-02T11:34:30.933Z,25.60
2018-03-02T11:36:34.656Z,25.60
2018-03-02T11:38:38.494Z,25.60
2018-03-02T11:40:42.889Z,25.60
2018-03-02T11:42:46.774Z,25.60
2018-03-02T11:44:50.486Z,25.60
2018-03-02T11:46:54.694Z,25.50
2018-03-02T11:48:58.528Z,25.60
2018-03-02T11:51:03.012Z,25.60
2018-03-02T11:53:06.545Z,25.50
2018-03-02T11:55:11.030Z,25.60
2018-03-02T11:57:14.809Z,25.60
2018-03-02T11:59:18.218Z,25.50
2018-03-02T12:01:21.845Z,25.50
2018-03-02T12:03:25.598Z,25.50
2018-03-02T12:05:29.220Z,25.40
2018-03-02T12:07:32.915Z,25.30
2018-03-02T12:09:36.609Z,25.30
2018-03-02T12:11:40.205Z,25.30
2018-03-02T12:13:44.109Z,25.10
2018-03-02T12:15:47.904Z,25.10
2018-03-02T12:17:51.997Z,25.00
2018-03-02T12:19:56.055Z,24.90
2018-03-02T12:21:59.855Z,24.90
2018-03-02T12:24:03.613Z,24.80
2018-03-02T12:26:07.441Z,24.70
2018-03-02T12:28:11.238Z,24.70
2018-03-02T12:30:15.045Z,24.70
2018-03-02T12:32:18.741Z,24.60
2018-03-02T12:34:22.427Z,24.70
2018-03-02T12:36:26.131Z,24.70
2018-03-02T12:38:29.928Z,24.70
2018-03-02T12:40:33.666Z,24.70
2018-03-02T12:42:37.228Z,24.70
2018-03-02T12:44:41.062Z,24.70
2018-03-02T12:46:46.039Z,24.70
2018-03-02T12:48:49.662Z,24.70
2018-03-02T12:50:54.292Z,24.80
2018-03-02T12:52:58.384Z,24.80
2018-03-02T12:55:02.054Z,24.80
2018-03-02T12:57:05.780Z,24.80
2018-03-02T12:59:09.398Z,24.80
2018-03-02T13:01:13.106Z,24.80
2018-03-02T13:03:18.349Z,24.80
2018-03-02T13:05:22.090Z,24.80
2018-03-02T13:07:26.138Z,25.20
2018-03-02T13:09:29.937Z,24.90
2018-03-02T13:11:33.539Z,24.90
2018-03-02T13:13:37.311Z,25.00
2018-03-02T13:15:41.430Z,24.90
2018-03-02T13:17:45.825Z,25.00
2018-03-02T13:19:49.756Z,25.00
2018-03-02T13:21:53.664Z,25.00
2018-03-02T13:23:57.363Z,25.00
2018-03-02T13:26:01.176Z,25.10
2018-03-02T13:28:16.132Z,25.10
2018-03-02T13:30:19.612Z,25.20
2018-03-02T13:32:22.973Z,25.20
2018-03-02T13:34:38.397Z,25.30
2018-03-02T13:36:41.768Z,25.30
2018-03-02T13:38:44.951Z,25.30
2018-03-02T13:40:59.745Z,25.30
2018-03-02T13:43:03.121Z,25.30
2018-03-02T13:45:06.528Z,25.40
2018-03-02T13:47:09.924Z,25.30
2018-03-02T13:49:25.077Z,25.40
2018-03-02T13:51:28.435Z,25.30
2018-03-02T13:53:31.816Z,25.30
2018-03-02T13:55:35.957Z,25.40
2018-03-02T13:57:50.691Z,25.40
2018-03-02T13:59:54.102Z,25.40
2018-03-02T14:01:57.483Z,25.40
2018-03-02T14:04:12.403Z,25.30
2018-03-02T14:06:15.798Z,25.40
2018-03-02T14:08:19.332Z,25.40
2018-03-02T14:10:22.728Z,25.40
2018-03-02T14:12:26.223Z,25.40
2018-03-02T14:14:29.593Z,25.40
2018-03-02T14:16:32.816Z,25.40
2018-03-02T14:18:36.187Z,25.30
2018-03-02T14:20:39.624Z,25.80
2018-03-02T14:22:42.993Z,25.40
2018-03-02T14:24:46.620Z,25.30
2018-03-02T14:26:50.820Z,25.30
2018-03-02T14:28:54.189Z,25.30
2018-03-02T14:30:57.670Z,25.30
2018-03-02T14:33:01.107Z,25.20
2018-03-02T14:35:04.500Z,25.30
2018-03-02T14:37:07.863Z,25.40
2018-03-02T14:39:11.228Z,25.60
2018-03-02T14:41:14.762Z,25.90
2018-03-02T14:43:18.858Z,26.30
2018-03-02T14:45:22.248Z,26.90
2018-03-02T14:47:25.612Z,27.00
2018-03-02T14:49:29.979Z,28.00
2018-03-02T14:51:33.526Z,28.00
2018-03-02T14:53:37.675Z,28.50
2018-03-02T14:55:41.436Z,28.50
2018-03-02T14:57:44.837Z,29.30
2018-03-02T14:59:48.262Z,29.60
2018-03-02T15:01:51.686Z,29.90
2018-03-02T15:03:55.048Z,29.90
2018-03-02T15:05:58.422Z,29.90
2018-03-02T15:08:01.926Z,30.00
2018-03-02T15:10:05.311Z,29.90
2018-03-02T15:12:08.914Z,29.90
2018-03-02T15:14:13.048Z,29.80
2018-03-02T15:16:17.029Z,29.80
2018-03-02T15:18:20.392Z,29.70
2018-03-02T15:20:24.519Z,29.60
2018-03-02T15:22:27.897Z,29.60
2018-03-02T15:24:32.198Z,29.30
2018-03-02T15:26:35.731Z,29.30
2018-03-02T15:28:39.325Z,29.20
2018-03-02T15:30:42.795Z,29.10
2018-03-02T15:32:46.324Z,29.00
2018-03-02T15:34:49.690Z,28.90
2018-03-02T15:36:53.866Z,28.70
2018-03-02T15:38:57.530Z,28.70
2018-03-02T15:41:01.392Z,28.70
2018-03-02T15:43:05.115Z,28.60
2018-03-02T15:45:08.623Z,28.50
2018-03-02T15:47:12.227Z,28.30
2018-03-02T15:49:16.446Z,28.30
2018-03-02T15:51:20.128Z,28.20
2018-03-02T15:53:23.802Z,28.20
2018-03-02T15:55:28.265Z,28.00
2018-03-02T15:57:32.162Z,28.00
2018-03-02T15:59:35.643Z,27.90
2018-03-02T16:01:39.107Z,27.90
2018-03-02T16:03:42.843Z,27.80
2018-03-02T16:05:46.437Z,27.70
2018-03-02T16:07:50.045Z,27.70
2018-03-02T16:09:53.629Z,27.60
2018-03-02T16:11:58.778Z,27.60
2018-03-02T16:14:02.250Z,27.40
2018-03-02T16:16:05.637Z,27.40
2018-03-02T16:18:09.094Z,27.40
2018-03-02T16:20:12.544Z,27.30
2018-03-02T16:22:16.160Z,27.20
2018-03-02T16:24:19.709Z,27.20
2018-03-02T16:26:24.970Z,27.10
2018-03-02T16:28:28.459Z,27.00
2018-03-02T16:30:31.955Z,27.00
2018-03-02T16:32:35.376Z,26.90
2018-03-02T16:34:38.944Z,26.90
2018-03-02T16:36:42.440Z,26.90
2018-03-02T16:38:46.074Z,26.90
2018-03-02T16:40:49.439Z,26.80
2018-03-02T16:42:52.822Z,26.80
2018-03-02T16:44:56.190Z,26.80
2018-03-02T16:47:00.425Z,26.70
2018-03-02T16:49:06.991Z,26.70
2018-03-02T16:51:10.354Z,26.70
2018-03-02T16:53:14.517Z,26.70
2018-03-02T16:55:18.092Z,26.70
2018-03-02T16:57:22.000Z,26.60
2018-03-02T16:59:25.805Z,26.60
2018-03-02T17:01:29.290Z,26.60
2018-03-02T17:03:32.811Z,26.50
2018-03-02T17:05:37.031Z,26.50
2018-03-02T17:07:40.627Z,26.50
2018-03-02T17:09:44.063Z,26.50
2018-03-02T17:11:48.309Z,26.50
2018-03-02T17:13:51.674Z,26.50
2018-03-02T17:15:55.038Z,26.50
2018-03-02T17:17:58.417Z,26.50
2018-03-02T17:20:01.787Z,26.50
2018-03-02T17:22:05.154Z,26.50
2018-03-02T17:24:08.529Z,26.50
2018-03-02T17:26:12.476Z,26.50
2018-03-02T17:28:15.858Z,26.50
2018-03-02T17:30:19.222Z,26.50
2018-03-02T17:32:22.582Z,26.50
2018-03-02T17:34:26.153Z,26.50
2018-03-02T17:36:29.532Z,26.50
2018-03-02T17:38:33.105Z,26.40
2018-03-02T17:40:37.319Z,26.40
2018-03-02T17:42:40.697Z,26.40
2018-03-02T17:44:44.826Z,26.40
2018-03-02T17:46:48.201Z,26.40
2018-03-02T17:48:51.723Z,26.40
2018-03-02T17:50:55.178Z,26.40
2018-03-02T17:52:59.539Z,26.40
2018-03-02T17:55:02.965Z,26.40
2018-03-02T17:57:06.497Z,26.40
2018-03-02T17:59:10.045Z,26.40
2018-03-02T18:01:13.711Z,26.40
2018-03-02T18:03:17.096Z,26.40
2018-03-02T18:05:20.606Z,26.40
2018-03-02T18:07:23.995Z,26.50
2018-03-02T18:09:27.453Z,26.50
2018-03-02T18:11:30.851Z,26.50
2018-03-02T18:13:34.296Z,26.50
2018-03-02T18:15:37.670Z,26.50
2018-03-02T18:17:41.038Z,26.50
2018-03-02T18:19:44.583Z,26.50
2018-03-02T18:21:47.977Z,26.50
2018-03-02T18:23:51.354Z,26.50
2018-03-02T18:25:54.727Z,26.60
2018-03-02T18:27:58.105Z,26.60
2018-03-02T18:30:01.474Z,26.50
2018-03-02T18:32:05.869Z,26.60
2018-03-02T18:34:09.523Z,26.60
2018-03-02T18:36:12.989Z,26.60
2018-03-02T18:38:17.128Z,26.60
2018-03-02T18:40:20.484Z,26.60
2018-03-02T18:42:24.630Z,26.60
2018-03-02T18:44:28.006Z,26.60
2018-03-02T18:46:31.398Z,26.60
2018-03-02T18:48:34.796Z,26.60
2018-03-02T18:50:38.169Z,26.60
2018-03-02T18:52:42.582Z,26.60
2018-03-02T18:54:47.030Z,26.70
2018-03-02T18:56:50.679Z,26.60
2018-03-02T18:58:54.850Z,26.60
2018-03-02T19:00:58.654Z,27.10
2018-03-02T19:03:02.032Z,26.70
2018-03-02T19:05:05.632Z,26.70
2018-03-02T19:07:09.333Z,26.60
2018-03-02T19:09:13.345Z,26.60
2018-03-02T19:11:17.650Z,26.60
2018-03-02T19:13:21.018Z,26.60
2018-03-02T19:15:24.896Z,26.70
2018-03-02T19:17:28.675Z,26.70
2018-03-02T19:19:32.550Z,26.70
2018-03-02T19:21:36.212Z,26.70
2018-03-02T19:23:40.495Z,26.90
2018-03-02T19:25:44.065Z,26.60
2018-03-02T19:27:47.656Z,26.70
2018-03-02T19:29:51.160Z,26.70
2018-03-02T19:31:54.955Z,26.70
2018-03-02T19:33:58.358Z,26.70
2018-03-02T19:36:01.738Z,26.60
2018-03-02T19:38:05.148Z,26.70
2018-03-02T19:40:08.529Z,26.70
2018-03-02T19:42:11.896Z,26.70
2018-03-02T19:44:15.264Z,26.80
2018-03-02T19:46:18.700Z,26.80
2018-03-02T19:48:22.086Z,26.90
2018-03-02T19:50:25.466Z,26.90
2018-03-02T19:52:29.597Z,26.90
2018-03-02T19:54:32.969Z,26.90
2018-03-02T19:56:36.328Z,26.90
2018-03-02T19:58:39.690Z,26.90
2018-03-02T20:00:43.073Z,26.90
2018-03-02T20:02:46.482Z,26.80
2018-03-02T20:04:49.900Z,26.80
2018-03-02T20:06:53.904Z,26.90
2018-03-02T20:08:57.902Z,26.80
2018-03-02T20:11:01.559Z,26.70
2018-03-02T20:13:04.792Z,26.70
2018-03-02T20:15:08.158Z,26.70
2018-03-02T20:17:11.766Z,26.60
2018-03-02T20:19:15.440Z,26.60
2018-03-02T20:21:19.597Z,27.00
2018-03-02T20:23:24.318Z,26.40
2018-03-02T20:25:28.583Z,26.50
2018-03-02T20:27:32.601Z,26.40
2018-03-02T20:29:36.192Z,26.50
2018-03-02T20:31:39.805Z,26.50
2018-03-02T20:33:43.231Z,26.80
2018-03-02T20:35:46.846Z,27.00
2018-03-02T20:37:51.871Z,27.30
2018-03-02T20:39:55.374Z,27.30
2018-03-02T20:41:59.894Z,27.50
2018-03-02T20:44:03.834Z,27.40
2018-03-02T20:46:09.096Z,28.00
2018-03-02T20:48:12.665Z,27.50
2018-03-02T20:50:16.171Z,27.60
2018-03-02T20:52:19.665Z,27.60
2018-03-02T20:54:23.652Z,27.60
2018-03-02T20:56:29.000Z,27.60
2018-03-02T20:58:34.023Z,27.60
2018-03-02T21:00:37.450Z,27.60
2018-03-02T21:02:40.902Z,27.60
2018-03-02T21:04:44.393Z,27.60
2018-03-02T21:06:48.306Z,27.70
2018-03-02T21:08:52.459Z,27.70
2018-03-02T21:10:57.372Z,27.70
2018-03-02T21:13:00.767Z,27.70
2018-03-02T21:15:04.176Z,27.70
2018-03-02T21:17:07.965Z,27.70
2018-03-02T21:19:11.324Z,28.20
2018-03-02T21:21:15.439Z,27.70
2018-03-02T21:23:18.861Z,27.80
2018-03-02T21:25:22.733Z,27.80
2018-03-02T21:27:26.342Z,27.80
2018-03-02T21:29:29.748Z,27.70
2018-03-02T21:31:33.123Z,27.80
2018-03-02T21:33:36.712Z,27.80
2018-03-02T21:35:40.202Z,27.90
2018-03-02T21:37:43.601Z,27.90
2018-03-02T21:39:46.963Z,27.90
2018-03-02T21:41:50.388Z,27.90
2018-03-02T21:43:53.783Z,27.90
2018-03-02T21:45:57.383Z,27.90
2018-03-02T21:48:01.171Z,27.90
2018-03-02T21:50:04.677Z,28.00
2018-03-02T21:52:08.164Z,28.00
2018-03-02T21:54:11.580Z,28.00
2018-03-02T21:56:14.958Z,28.00
2018-03-02T21:58:18.237Z,28.00
2018-03-02T22:00:21.629Z,28.10
2018-03-02T22:02:24.998Z,28.00
2018-03-02T22:04:28.401Z,28.10
2018-03-02T22:06:31.805Z,28.10
2018-03-02T22:08:35.220Z,28.10
2018-03-02T22:10:38.620Z,28.20
2018-03-02T22:12:41.995Z,28.20
2018-03-02T22:14:45.398Z,28.20
2018-03-02T22:16:48.795Z,28.20
2018-03-02T22:18:52.286Z,28.20
2018-03-02T22:20:55.740Z,28.20
2018-03-02T22:22:59.244Z,28.30
2018-03-02T22:25:02.677Z,28.30
2018-03-02T22:27:06.070Z,28.30
2018-03-02T22:29:09.496Z,28.30
2018-03-02T22:31:13.677Z,28.30
2018-03-02T22:33:17.063Z,28.30
2018-03-02T22:35:20.456Z,28.40
2018-03-02T22:37:23.838Z,28.40
2018-03-02T22:39:27.310Z,28.30
2018-03-02T22:41:30.711Z,28.30
2018-03-02T22:43:34.083Z,28.30
2018-03-02T22:45:37.696Z,28.30
2018-03-02T22:47:41.070Z,28.30
2018-03-02T22:49:44.450Z,28.40
2018-03-02T22:51:48.626Z,28.40
2018-03-02T22:53:52.052Z,28.30
2018-03-02T22:55:56.295Z,28.30
2018-03-02T22:57:59.708Z,28.30
2018-03-02T23:00:03.111Z,28.30
2018-03-02T23:02:06.575Z,28.30
2018-03-02T23:04:09.966Z,28.40
2018-03-02T23:06:13.461Z,28.30
2018-03-02T23:08:16.834Z,28.30
2018-03-02T23:10:20.258Z,28.30
2018-03-02T23:12:23.698Z,28.30
2018-03-02T23:14:27.864Z,28.40
2018-03-02T23:16:31.345Z,28.40
2018-03-02T23:18:34.889Z,28.30
2018-03-02T23:20:39.158Z,28.40
2018-03-02T23:22:42.581Z,28.40
2018-03-02T23:24:46.033Z,28.30
2018-03-02T23:26:49.450Z,28.40
2018-03-02T23:28:52.853Z,28.40
2018-03-02T23:30:56.318Z,28.40
2018-03-02T23:32:59.787Z,28.40
2018-03-02T23:35:03.168Z,28.50
2018-03-02T23:37:07.306Z,28.50
2018-03-02T23:39:12.450Z,28.50
2018-03-02T23:41:15.890Z,28.40
2018-03-02T23:43:19.262Z,28.50
2018-03-02T23:45:22.675Z,28.50
2018-03-02T23:47:26.086Z,28.50
2018-03-02T23:49:30.265Z,28.60
2018-03-02T23:51:33.697Z,28.60
2018-03-02T23:53:38.962Z,28.60
2018-03-02T23:55:42.456Z,28.60
2018-03-02T23:57:45.862Z,28.60
2018-03-02T23:59:49.280Z,28.60
